createdAt,value
2019-02-26T00:00:14.415Z,6.65
2019-02-26T00:01:14.444Z,6.68
2019-02-26T00:02:12.087Z,6.54
2019-02-26T00:03:11.059Z,6.58
2019-02-26T00:04:11.046Z,6.48
2019-02-26T00:05:11.039Z,6.51
2019-02-26T00:06:11.025Z,6.48
2019-02-26T00:07:14.264Z,6.51
2019-02-26T00:08:12.011Z,6.44
2019-02-26T00:09:10.992Z,6.46
2019-02-26T00:10:10.978Z,6.48
2019-02-26T00:11:10.970Z,6.50
2019-02-26T00:12:10.976Z,6.47
2019-02-26T00:13:10.948Z,6.51
2019-02-26T00:14:15.494Z,6.38
2019-02-26T00:15:11.922Z,6.33
2019-02-26T00:16:12.859Z,6.38
2019-02-26T00:17:12.912Z,6.19
2019-02-26T00:18:11.787Z,6.25
2019-02-26T00:19:11.943Z,6.16
2019-02-26T00:20:12.692Z,6.16
2019-02-26T00:21:10.855Z,6.22
2019-02-26T00:22:12.153Z,6.21
2019-02-26T00:23:10.830Z,6.18
2019-02-26T00:24:12.801Z,6.26
2019-02-26T00:25:12.648Z,6.25
2019-02-26T00:26:12.684Z,6.19
2019-02-26T00:27:10.803Z,6.25
2019-02-26T00:28:11.147Z,6.16
2019-02-26T00:29:10.762Z,6.18
2019-02-26T00:30:11.388Z,6.22
2019-02-26T00:31:10.741Z,6.11
2019-02-26T00:32:12.240Z,6.11
2019-02-26T00:33:10.720Z,6.07
2019-02-26T00:34:13.292Z,6.07
2019-02-26T00:35:10.698Z,6.04
2019-02-26T00:36:11.199Z,6.14
2019-02-26T00:37:10.691Z,6.16
2019-02-26T00:38:11.647Z,6.10
2019-02-26T00:39:10.653Z,6.10
2019-02-26T00:40:12.374Z,6.06
2019-02-26T00:41:10.628Z,5.96
2019-02-26T00:42:10.638Z,6.01
2019-02-26T00:43:10.607Z,5.98
2019-02-26T00:44:10.592Z,5.98
2019-02-26T00:45:10.582Z,6.00
2019-02-26T00:46:10.570Z,5.98
2019-02-26T00:47:10.569Z,6.09
2019-02-26T00:48:10.601Z,5.89
2019-02-26T00:49:10.546Z,5.86
2019-02-26T00:50:11.916Z,5.89
2019-02-26T00:51:10.515Z,5.96
2019-02-26T00:52:11.508Z,5.91
2019-02-26T00:53:10.508Z,5.86
2019-02-26T00:54:10.479Z,5.86
2019-02-26T00:55:10.469Z,5.96
2019-02-26T00:56:10.456Z,5.96
2019-02-26T00:57:11.516Z,5.88
2019-02-26T00:58:10.761Z,5.83
2019-02-26T00:59:10.421Z,5.85
2019-02-26T01:00:11.837Z,5.89
2019-02-26T01:01:12.382Z,5.81
2019-02-26T01:02:10.387Z,5.85
2019-02-26T01:03:17.482Z,5.75
2019-02-26T01:04:10.368Z,5.83
2019-02-26T01:05:11.322Z,5.86
2019-02-26T01:06:10.343Z,5.78
2019-02-26T01:07:10.334Z,5.73
2019-02-26T01:08:12.827Z,5.83
2019-02-26T01:09:11.230Z,5.81
2019-02-26T01:10:11.630Z,5.83
2019-02-26T01:11:10.286Z,5.81
2019-02-26T01:12:11.805Z,5.74
2019-02-26T01:13:10.266Z,6.03
2019-02-26T01:14:10.276Z,5.88
2019-02-26T01:15:11.588Z,6.00
2019-02-26T01:16:10.252Z,6.01
2019-02-26T01:17:11.966Z,5.86
2019-02-26T01:18:10.221Z,5.95
2019-02-26T01:19:10.919Z,5.93
2019-02-26T01:20:10.203Z,5.91
2019-02-26T01:21:10.196Z,5.81
2019-02-26T01:22:10.159Z,5.81
2019-02-26T01:23:10.149Z,5.78
2019-02-26T01:24:10.139Z,5.74
2019-02-26T01:25:12.180Z,5.71
2019-02-26T01:26:12.113Z,5.75
2019-02-26T01:27:10.108Z,5.60
2019-02-26T01:28:13.954Z,5.66
2019-02-26T01:29:10.083Z,5.75
2019-02-26T01:30:10.088Z,5.63
2019-02-26T01:31:10.058Z,5.70
2019-02-26T01:32:13.205Z,5.70
2019-02-26T01:33:10.034Z,5.71
2019-02-26T01:34:12.014Z,5.70
2019-02-26T01:35:11.232Z,5.74
2019-02-26T01:36:10.004Z,5.68
2019-02-26T01:37:11.766Z,5.71
2019-02-26T01:38:09.978Z,5.59
2019-02-26T01:39:11.619Z,5.68
2019-02-26T01:40:12.898Z,5.57
2019-02-26T01:41:11.344Z,5.66
2019-02-26T01:42:10.684Z,5.52
2019-02-26T01:43:09.921Z,5.59
2019-02-26T01:44:09.920Z,5.46
2019-02-26T01:45:09.925Z,5.63
2019-02-26T01:46:11.701Z,5.63
2019-02-26T01:47:09.876Z,5.55
2019-02-26T01:48:11.509Z,5.63
2019-02-26T01:49:10.854Z,5.52
2019-02-26T01:50:11.108Z,5.59
2019-02-26T01:51:09.835Z,5.63
2019-02-26T01:52:10.710Z,5.53
2019-02-26T01:53:09.806Z,5.67
2019-02-26T01:54:10.340Z,5.57
2019-02-26T01:55:09.805Z,5.55
2019-02-26T01:56:09.775Z,5.60
2019-02-26T01:57:09.761Z,5.45
2019-02-26T01:58:09.752Z,5.50
2019-02-26T01:59:09.738Z,5.52
2019-02-26T02:00:09.728Z,5.49
2019-02-26T02:01:12.015Z,5.43
2019-02-26T02:02:12.178Z,5.48
2019-02-26T02:03:09.693Z,5.49
2019-02-26T02:04:11.073Z,5.41
2019-02-26T02:05:09.671Z,5.46
2019-02-26T02:06:11.772Z,5.49
2019-02-26T02:07:09.652Z,5.40
2019-02-26T02:08:13.058Z,5.46
2019-02-26T02:09:13.426Z,5.45
2019-02-26T02:10:09.614Z,5.46
2019-02-26T02:11:09.682Z,5.37
2019-02-26T02:12:11.045Z,5.45
2019-02-26T02:13:10.993Z,5.34
2019-02-26T02:14:10.435Z,5.37
2019-02-26T02:15:10.129Z,5.27
2019-02-26T02:16:09.567Z,5.45
2019-02-26T02:17:10.889Z,5.31
2019-02-26T02:18:09.522Z,5.20
2019-02-26T02:19:09.513Z,5.34
2019-02-26T02:20:10.998Z,5.32
2019-02-26T02:21:09.486Z,5.35
2019-02-26T02:22:10.063Z,5.30
2019-02-26T02:23:09.481Z,5.23
2019-02-26T02:24:12.597Z,5.23
2019-02-26T02:25:09.445Z,5.25
2019-02-26T02:26:11.182Z,5.27
2019-02-26T02:27:09.441Z,5.20
2019-02-26T02:28:09.409Z,5.25
2019-02-26T02:29:12.663Z,5.12
2019-02-26T02:30:14.387Z,5.14
2019-02-26T02:31:10.375Z,5.23
2019-02-26T02:32:09.386Z,5.13
2019-02-26T02:33:09.356Z,5.25
2019-02-26T02:34:09.341Z,5.10
2019-02-26T02:35:10.120Z,5.31
2019-02-26T02:36:11.493Z,5.22
2019-02-26T02:37:09.307Z,5.30
2019-02-26T02:38:09.324Z,5.20
2019-02-26T02:39:13.011Z,5.20
2019-02-26T02:40:10.273Z,5.25
2019-02-26T02:41:09.266Z,5.20
2019-02-26T02:42:10.978Z,5.19
2019-02-26T02:43:10.063Z,5.20
2019-02-26T02:44:12.310Z,5.12
2019-02-26T02:45:11.311Z,5.20
2019-02-26T02:46:09.207Z,5.12
2019-02-26T02:47:11.179Z,5.09
2019-02-26T02:48:11.599Z,5.17
2019-02-26T02:49:09.828Z,5.25
2019-02-26T02:50:11.492Z,5.27
2019-02-26T02:51:13.169Z,5.28
2019-02-26T02:52:11.619Z,5.17
2019-02-26T02:53:09.155Z,5.19
2019-02-26T02:54:11.894Z,5.16
2019-02-26T02:55:10.549Z,5.28
2019-02-26T02:56:10.566Z,5.23
2019-02-26T02:57:10.043Z,5.30
2019-02-26T02:58:09.088Z,5.27
2019-02-26T02:59:11.150Z,5.23
2019-02-26T03:00:09.054Z,5.07
2019-02-26T03:01:09.033Z,5.09
2019-02-26T03:02:09.903Z,5.13
2019-02-26T03:03:09.031Z,5.10
2019-02-26T03:04:09.002Z,4.99
2019-02-26T03:05:08.988Z,5.04
2019-02-26T03:06:09.682Z,4.95
2019-02-26T03:07:08.969Z,5.01
2019-02-26T03:08:10.766Z,4.98
2019-02-26T03:09:09.768Z,5.01
2019-02-26T03:10:10.228Z,4.88
2019-02-26T03:11:08.919Z,4.96
2019-02-26T03:12:08.912Z,4.99
2019-02-26T03:13:08.918Z,4.83
2019-02-26T03:14:10.862Z,4.84
2019-02-26T03:15:10.027Z,4.83
2019-02-26T03:16:08.864Z,4.84
2019-02-26T03:17:10.812Z,4.84
2019-02-26T03:18:11.785Z,5.01
2019-02-26T03:19:09.686Z,4.86
2019-02-26T03:20:10.101Z,4.91
2019-02-26T03:21:08.807Z,4.75
2019-02-26T03:22:09.779Z,4.84
2019-02-26T03:23:11.913Z,4.94
2019-02-26T03:24:10.529Z,5.01
2019-02-26T03:25:08.763Z,4.80
2019-02-26T03:26:12.560Z,4.91
2019-02-26T03:27:08.741Z,4.94
2019-02-26T03:28:08.728Z,4.94
2019-02-26T03:29:08.733Z,4.89
2019-02-26T03:30:08.708Z,4.88
2019-02-26T03:31:08.694Z,4.83
2019-02-26T03:32:08.685Z,4.70
2019-02-26T03:33:08.683Z,4.83
2019-02-26T03:34:14.241Z,4.89
2019-02-26T03:35:10.753Z,4.96
2019-02-26T03:36:11.030Z,5.10
2019-02-26T03:37:10.777Z,5.07
2019-02-26T03:38:08.617Z,4.94
2019-02-26T03:39:08.622Z,4.99
2019-02-26T03:40:08.646Z,5.02
2019-02-26T03:41:08.582Z,4.86
2019-02-26T03:42:10.479Z,4.94
2019-02-26T03:43:10.880Z,4.84
2019-02-26T03:44:08.836Z,4.94
2019-02-26T03:45:08.536Z,4.80
2019-02-26T03:46:08.524Z,4.86
2019-02-26T03:47:08.515Z,4.73
2019-02-26T03:48:08.500Z,4.67
2019-02-26T03:49:08.518Z,4.67
2019-02-26T03:50:09.407Z,4.67
2019-02-26T03:51:08.469Z,4.77
2019-02-26T03:52:08.456Z,4.69
2019-02-26T03:53:09.939Z,4.73
2019-02-26T03:54:08.453Z,4.76
2019-02-26T03:55:09.433Z,4.80
2019-02-26T03:56:11.726Z,4.83
2019-02-26T03:57:11.349Z,4.79
2019-02-26T03:58:08.389Z,4.88
2019-02-26T03:59:09.522Z,4.89
2019-02-26T04:00:09.224Z,4.91
2019-02-26T04:01:10.248Z,4.83
2019-02-26T04:02:09.356Z,4.91
2019-02-26T04:03:09.329Z,4.92
2019-02-26T04:04:08.345Z,4.80
2019-02-26T04:05:08.957Z,4.75
2019-02-26T04:06:10.022Z,4.83
2019-02-26T04:07:10.601Z,4.75
2019-02-26T04:08:08.277Z,4.77
2019-02-26T04:09:09.132Z,4.64
2019-02-26T04:10:08.253Z,4.77
2019-02-26T04:11:08.242Z,4.52
2019-02-26T04:12:10.362Z,4.54
2019-02-26T04:13:08.218Z,4.47
2019-02-26T04:14:12.157Z,4.40
2019-02-26T04:15:08.198Z,4.44
2019-02-26T04:16:08.186Z,4.42
2019-02-26T04:17:08.989Z,4.37
2019-02-26T04:18:08.160Z,4.34
2019-02-26T04:19:08.910Z,4.40
2019-02-26T04:20:08.142Z,4.42
2019-02-26T04:21:09.346Z,4.28
2019-02-26T04:22:08.119Z,4.26
2019-02-26T04:23:08.988Z,4.29
2019-02-26T04:24:08.581Z,4.24
2019-02-26T04:25:09.259Z,4.28
2019-02-26T04:26:08.072Z,4.28
2019-02-26T04:27:08.059Z,4.22
2019-02-26T04:28:10.833Z,4.24
2019-02-26T04:29:08.056Z,4.25
2019-02-26T04:30:08.207Z,4.21
2019-02-26T04:31:08.014Z,4.26
2019-02-26T04:32:09.147Z,4.29
2019-02-26T04:33:09.593Z,4.32
2019-02-26T04:34:08.558Z,4.28
2019-02-26T04:35:07.988Z,4.28
2019-02-26T04:36:09.763Z,4.29
2019-02-26T04:37:10.076Z,4.39
2019-02-26T04:38:07.933Z,4.36
2019-02-26T04:39:10.859Z,4.36
2019-02-26T04:40:11.904Z,4.39
2019-02-26T04:41:11.964Z,4.33
2019-02-26T04:42:09.381Z,4.29
2019-02-26T04:43:10.315Z,4.16
2019-02-26T04:44:07.879Z,4.33
2019-02-26T04:45:08.932Z,4.19
2019-02-26T04:46:08.492Z,4.25
2019-02-26T04:47:07.831Z,4.19
2019-02-26T04:48:07.819Z,4.21
2019-02-26T04:49:07.809Z,4.21
2019-02-26T04:50:08.976Z,4.21
2019-02-26T04:51:07.786Z,4.26
2019-02-26T04:52:10.720Z,4.24
2019-02-26T04:53:08.934Z,4.34
2019-02-26T04:54:07.750Z,4.26
2019-02-26T04:55:07.760Z,4.32
2019-02-26T04:56:12.268Z,4.37
2019-02-26T04:57:08.728Z,4.37
2019-02-26T04:58:08.693Z,4.22
2019-02-26T04:59:09.375Z,4.28
2019-02-26T05:00:10.266Z,4.37
2019-02-26T05:01:09.901Z,4.36
2019-02-26T05:02:07.659Z,4.21
2019-02-26T05:03:10.541Z,4.24
2019-02-26T05:04:07.637Z,4.22
2019-02-26T05:05:07.644Z,4.18
2019-02-26T05:06:08.447Z,4.24
2019-02-26T05:07:10.368Z,4.28
2019-02-26T05:08:10.506Z,4.33
2019-02-26T05:09:08.082Z,4.21
2019-02-26T05:10:07.587Z,4.18
2019-02-26T05:11:07.556Z,4.07
2019-02-26T05:12:07.546Z,3.97
2019-02-26T05:13:09.706Z,4.08
2019-02-26T05:14:09.129Z,4.01
2019-02-26T05:15:11.518Z,3.92
2019-02-26T05:16:08.515Z,3.96
2019-02-26T05:17:07.488Z,3.97
2019-02-26T05:18:07.476Z,3.96
2019-02-26T05:19:07.464Z,4.01
2019-02-26T05:20:10.611Z,4.15
2019-02-26T05:21:10.823Z,4.01
2019-02-26T05:22:07.436Z,4.00
2019-02-26T05:23:07.419Z,4.22
2019-02-26T05:24:07.407Z,4.24
2019-02-26T05:25:10.533Z,4.22
2019-02-26T05:26:11.649Z,4.24
2019-02-26T05:27:10.181Z,4.18
2019-02-26T05:28:11.417Z,4.22
2019-02-26T05:29:07.351Z,4.29
2019-02-26T05:30:09.421Z,4.16
2019-02-26T05:31:09.031Z,4.19
2019-02-26T05:32:09.308Z,4.18
2019-02-26T05:33:07.310Z,4.24
2019-02-26T05:34:07.294Z,4.22
2019-02-26T05:35:07.292Z,4.01
2019-02-26T05:36:09.433Z,4.25
2019-02-26T05:37:08.015Z,4.25
2019-02-26T05:38:09.528Z,4.08
2019-02-26T05:39:07.237Z,4.16
2019-02-26T05:40:12.168Z,4.21
2019-02-26T05:41:08.270Z,4.32
2019-02-26T05:42:07.203Z,4.14
2019-02-26T05:43:07.196Z,4.25
2019-02-26T05:44:10.268Z,4.14
2019-02-26T05:45:09.358Z,4.12
2019-02-26T05:46:07.177Z,4.04
2019-02-26T05:47:07.146Z,4.04
2019-02-26T05:48:07.140Z,3.92
2019-02-26T05:49:10.600Z,3.86
2019-02-26T05:50:12.413Z,3.85
2019-02-26T05:51:10.870Z,3.83
2019-02-26T05:52:07.245Z,3.79
2019-02-26T05:53:07.629Z,3.79
2019-02-26T05:54:08.041Z,3.72
2019-02-26T05:55:07.055Z,3.82
2019-02-26T05:56:08.950Z,3.83
2019-02-26T05:57:10.882Z,3.88
2019-02-26T05:58:10.078Z,3.89
2019-02-26T05:59:09.438Z,4.00
2019-02-26T06:00:08.408Z,4.06
2019-02-26T06:01:07.007Z,4.12
2019-02-26T06:02:06.976Z,4.16
2019-02-26T06:03:09.601Z,4.03
2019-02-26T06:04:09.470Z,4.06
2019-02-26T06:05:06.943Z,4.07
2019-02-26T06:06:06.952Z,4.06
2019-02-26T06:07:06.926Z,4.14
2019-02-26T06:08:06.913Z,4.16
2019-02-26T06:09:07.761Z,4.15
2019-02-26T06:10:06.889Z,4.24
2019-02-26T06:11:06.896Z,4.55
2019-02-26T06:12:06.862Z,5.13
2019-02-26T06:13:07.642Z,4.91
2019-02-26T06:14:09.648Z,4.79
2019-02-26T06:15:08.422Z,4.58
2019-02-26T06:16:07.544Z,4.46
2019-02-26T06:17:07.269Z,4.29
2019-02-26T06:18:06.793Z,4.26
2019-02-26T06:19:08.528Z,4.22
2019-02-26T06:20:08.137Z,4.22
2019-02-26T06:21:06.780Z,4.33
2019-02-26T06:22:08.928Z,4.37
2019-02-26T06:23:07.740Z,4.34
2019-02-26T06:24:06.732Z,4.25
2019-02-26T06:25:12.406Z,4.34
2019-02-26T06:26:13.253Z,4.42
2019-02-26T06:27:10.822Z,4.58
2019-02-26T06:28:12.087Z,4.44
2019-02-26T06:29:06.671Z,4.34
2019-02-26T06:30:09.309Z,4.26
2019-02-26T06:31:06.665Z,4.37
2019-02-26T06:32:07.739Z,4.22
2019-02-26T06:33:08.978Z,4.29
2019-02-26T06:34:08.793Z,4.22
2019-02-26T06:35:08.411Z,4.15
2019-02-26T06:36:06.611Z,4.12
2019-02-26T06:37:07.173Z,4.08
2019-02-26T06:38:08.981Z,4.19
2019-02-26T06:39:06.557Z,4.16
2019-02-26T06:40:07.486Z,4.14
2019-02-26T06:41:06.552Z,4.21
2019-02-26T06:42:07.567Z,4.22
2019-02-26T06:43:06.511Z,4.18
2019-02-26T06:44:06.502Z,4.19
2019-02-26T06:45:08.341Z,4.22
2019-02-26T06:46:09.257Z,4.44
2019-02-26T06:47:09.093Z,4.24
2019-02-26T06:48:06.454Z,4.32
2019-02-26T06:49:06.444Z,4.26
2019-02-26T06:50:08.188Z,4.39
2019-02-26T06:51:07.181Z,4.26
2019-02-26T06:52:08.245Z,4.28
2019-02-26T06:53:08.378Z,4.40
2019-02-26T06:54:06.387Z,4.28
2019-02-26T06:55:07.776Z,4.57
2019-02-26T06:56:06.363Z,4.58
2019-02-26T06:57:06.371Z,4.64
2019-02-26T06:58:06.341Z,4.67
2019-02-26T06:59:07.501Z,4.59
2019-02-26T07:00:06.325Z,4.55
2019-02-26T07:01:07.642Z,4.46
2019-02-26T07:02:06.323Z,4.61
2019-02-26T07:03:06.285Z,4.46
2019-02-26T07:04:06.273Z,4.44
2019-02-26T07:05:06.261Z,4.57
2019-02-26T07:06:06.257Z,4.59
2019-02-26T07:07:07.397Z,4.50
2019-02-26T07:08:06.642Z,4.44
2019-02-26T07:09:06.216Z,4.51
2019-02-26T07:10:06.206Z,4.69
2019-02-26T07:11:07.319Z,4.61
2019-02-26T07:12:06.207Z,4.51
2019-02-26T07:13:08.877Z,4.64
2019-02-26T07:14:07.966Z,4.70
2019-02-26T07:15:06.147Z,4.72
2019-02-26T07:16:06.137Z,4.67
2019-02-26T07:17:06.126Z,4.84
2019-02-26T07:18:09.096Z,4.94
2019-02-26T07:19:06.531Z,5.10
2019-02-26T07:20:06.090Z,5.12
2019-02-26T07:21:06.080Z,5.04
2019-02-26T07:22:08.310Z,5.25
2019-02-26T07:23:07.778Z,5.48
2019-02-26T07:24:07.697Z,5.64
2019-02-26T07:25:08.167Z,5.74
2019-02-26T07:26:06.023Z,5.82
2019-02-26T07:27:06.661Z,5.85
2019-02-26T07:28:06.019Z,6.11
2019-02-26T07:29:07.633Z,6.13
2019-02-26T07:30:05.978Z,6.29
2019-02-26T07:31:07.944Z,6.33
2019-02-26T07:32:05.955Z,6.21
2019-02-26T07:33:08.165Z,6.19
2019-02-26T07:34:05.932Z,6.28
2019-02-26T07:35:06.902Z,6.09
2019-02-26T07:36:05.905Z,6.03
2019-02-26T07:37:06.511Z,5.96
2019-02-26T07:38:05.901Z,5.70
2019-02-26T07:39:05.874Z,5.75
2019-02-26T07:40:08.283Z,5.75
2019-02-26T07:41:06.223Z,5.78
2019-02-26T07:42:07.373Z,5.78
2019-02-26T07:43:09.122Z,5.71
2019-02-26T07:44:09.023Z,5.91
2019-02-26T07:45:14.599Z,6.00
2019-02-26T07:46:06.788Z,6.14
2019-02-26T07:47:06.643Z,6.58
2019-02-26T07:48:05.787Z,7.32
2019-02-26T07:49:07.415Z,8.21
2019-02-26T07:50:06.779Z,9.20
2019-02-26T07:51:05.734Z,9.97
2019-02-26T07:52:06.888Z,10.43
2019-02-26T07:53:05.735Z,10.91
2019-02-26T07:54:05.700Z,11.36
2019-02-26T07:55:06.257Z,11.74
2019-02-26T07:56:06.715Z,12.54
2019-02-26T07:57:05.690Z,13.17
2019-02-26T07:58:06.213Z,13.63
2019-02-26T07:59:07.845Z,14.42
2019-02-26T08:00:05.628Z,14.93
2019-02-26T08:01:05.645Z,15.31
2019-02-26T08:02:06.357Z,15.68
2019-02-26T08:03:05.595Z,16.06
2019-02-26T08:04:06.207Z,15.48
2019-02-26T08:05:05.572Z,15.08
2019-02-26T08:06:07.184Z,14.61
2019-02-26T08:07:05.547Z,14.53
2019-02-26T08:08:05.538Z,15.11
2019-02-26T08:09:07.058Z,15.81
2019-02-26T08:10:06.067Z,16.01
2019-02-26T08:11:05.500Z,16.30
2019-02-26T08:12:07.180Z,16.53
2019-02-26T08:13:06.262Z,17.03
2019-02-26T08:14:05.487Z,17.64
2019-02-26T08:15:07.972Z,17.78
2019-02-26T08:16:05.447Z,18.03
2019-02-26T08:17:06.306Z,17.94
2019-02-26T08:18:05.454Z,17.99
2019-02-26T08:19:05.435Z,18.07
2019-02-26T08:20:08.158Z,18.59
2019-02-26T08:21:05.399Z,19.15
2019-02-26T08:22:05.373Z,19.39
2019-02-26T08:23:05.364Z,19.18
2019-02-26T08:24:05.353Z,19.31
2019-02-26T08:25:05.362Z,19.72
2019-02-26T08:26:05.329Z,19.97
2019-02-26T08:27:06.062Z,20.38
2019-02-26T08:28:05.311Z,20.96
2019-02-26T08:29:07.422Z,21.26
2019-02-26T08:30:06.827Z,21.61
2019-02-26T08:31:05.426Z,21.94
2019-02-26T08:32:05.260Z,21.71
2019-02-26T08:33:07.217Z,22.07
2019-02-26T08:34:05.243Z,22.64
2019-02-26T08:35:05.246Z,22.29
2019-02-26T08:36:05.218Z,22.25
2019-02-26T08:37:05.205Z,22.27
2019-02-26T08:38:06.243Z,21.82
2019-02-26T08:39:05.182Z,21.36
2019-02-26T08:40:05.189Z,21.75
2019-02-26T08:41:05.160Z,22.38
2019-02-26T08:42:05.150Z,22.41
2019-02-26T08:43:05.144Z,22.68
2019-02-26T08:44:05.127Z,22.75
2019-02-26T08:45:05.132Z,21.92
2019-02-26T08:46:06.768Z,21.41
2019-02-26T08:47:08.668Z,20.79
2019-02-26T08:48:06.077Z,21.05
2019-02-26T08:49:08.296Z,21.63
2019-02-26T08:50:07.454Z,20.38
2019-02-26T08:51:06.119Z,20.12
2019-02-26T08:52:05.055Z,19.43
2019-02-26T08:53:05.024Z,19.18
2019-02-26T08:54:05.012Z,19.78
2019-02-26T08:55:07.094Z,20.47
2019-02-26T08:56:04.991Z,21.59
2019-02-26T08:57:04.981Z,22.62
2019-02-26T08:58:04.967Z,23.46
2019-02-26T08:59:04.958Z,23.76
2019-02-26T09:00:04.960Z,24.41
2019-02-26T09:01:04.934Z,24.49
2019-02-26T09:02:04.923Z,23.14
2019-02-26T09:03:04.911Z,23.02
2019-02-26T09:04:04.900Z,23.68
2019-02-26T09:05:06.832Z,24.29
2019-02-26T09:06:12.785Z,24.94
2019-02-26T09:07:05.867Z,25.39
2019-02-26T09:08:06.040Z,25.27
2019-02-26T09:09:06.785Z,25.77
2019-02-26T09:10:07.036Z,26.11
2019-02-26T09:11:06.275Z,25.75
2019-02-26T09:12:04.812Z,25.83
2019-02-26T09:13:06.328Z,25.20
2019-02-26T09:14:06.703Z,25.09
2019-02-26T09:15:04.776Z,25.47
2019-02-26T09:16:06.158Z,25.84
2019-02-26T09:17:04.806Z,26.15
2019-02-26T09:18:04.746Z,25.90
2019-02-26T09:19:04.736Z,25.67
2019-02-26T09:20:09.290Z,25.93
2019-02-26T09:21:07.153Z,26.77
2019-02-26T09:22:04.702Z,27.10
2019-02-26T09:23:04.691Z,27.76
2019-02-26T09:24:07.518Z,28.32
2019-02-26T09:25:04.670Z,28.51
2019-02-26T09:26:06.987Z,28.84
2019-02-26T09:27:05.122Z,28.38
2019-02-26T09:28:04.635Z,26.25
2019-02-26T09:29:04.628Z,25.67
2019-02-26T09:30:05.839Z,25.13
2019-02-26T09:31:06.664Z,25.57
2019-02-26T09:32:06.744Z,25.53
2019-02-26T09:33:06.388Z,24.77
2019-02-26T09:34:04.569Z,24.94
2019-02-26T09:35:04.898Z,25.62
2019-02-26T09:36:04.586Z,26.72
2019-02-26T09:37:05.740Z,27.39
2019-02-26T09:38:04.526Z,27.53
2019-02-26T09:39:05.894Z,26.96
2019-02-26T09:40:04.864Z,27.10
2019-02-26T09:41:04.504Z,27.89
2019-02-26T09:42:06.362Z,28.80
2019-02-26T09:43:06.063Z,28.91
2019-02-26T09:44:06.639Z,28.72
2019-02-26T09:45:04.447Z,29.38
2019-02-26T09:46:06.370Z,29.78
2019-02-26T09:47:05.377Z,30.26
2019-02-26T09:48:04.414Z,30.81
2019-02-26T09:49:05.090Z,31.39
2019-02-26T09:50:04.394Z,31.65
2019-02-26T09:51:04.887Z,31.91
2019-02-26T09:52:06.299Z,32.14
2019-02-26T09:53:04.363Z,32.18
2019-02-26T09:54:04.350Z,32.40
2019-02-26T09:55:04.341Z,32.25
2019-02-26T09:56:04.332Z,32.39
2019-02-26T09:57:04.340Z,32.35
2019-02-26T09:58:04.309Z,32.43
2019-02-26T09:59:05.183Z,32.51
2019-02-26T10:00:04.287Z,32.51
2019-02-26T10:01:06.266Z,32.58
2019-02-26T10:02:06.023Z,32.40
2019-02-26T10:03:07.449Z,32.11
2019-02-26T10:04:05.380Z,32.52
2019-02-26T10:05:06.218Z,31.95
2019-02-26T10:06:04.220Z,31.75
2019-02-26T10:07:06.620Z,32.00
2019-02-26T10:08:05.354Z,32.14
2019-02-26T10:09:04.193Z,32.03
2019-02-26T10:10:06.482Z,31.99
2019-02-26T10:11:04.917Z,31.70
2019-02-26T10:12:05.597Z,32.06
2019-02-26T10:13:04.747Z,32.54
2019-02-26T10:14:05.414Z,33.01
2019-02-26T10:15:05.293Z,33.29
2019-02-26T10:16:06.342Z,33.33
2019-02-26T10:17:04.107Z,32.58
2019-02-26T10:18:06.796Z,32.33
2019-02-26T10:19:05.082Z,32.06
2019-02-26T10:20:05.064Z,32.54
2019-02-26T10:21:05.958Z,32.84
2019-02-26T10:22:07.129Z,33.08
2019-02-26T10:23:06.346Z,32.92
2019-02-26T10:24:04.612Z,32.76
2019-02-26T10:25:04.019Z,33.17
2019-02-26T10:26:05.760Z,33.57
2019-02-26T10:27:05.990Z,33.74
2019-02-26T10:28:08.660Z,33.70
2019-02-26T10:29:05.987Z,34.01
2019-02-26T10:30:05.837Z,33.20
2019-02-26T10:31:06.802Z,32.43
2019-02-26T10:32:03.951Z,32.69
2019-02-26T10:33:03.979Z,33.11
2019-02-26T10:34:07.904Z,33.57
2019-02-26T10:35:06.445Z,33.79
2019-02-26T10:36:05.433Z,34.13
2019-02-26T10:37:03.898Z,34.23
2019-02-26T10:38:07.732Z,34.04
2019-02-26T10:39:03.892Z,34.23
2019-02-26T10:40:03.863Z,34.46
2019-02-26T10:41:05.131Z,34.22
2019-02-26T10:42:03.846Z,33.60
2019-02-26T10:43:03.841Z,33.97
2019-02-26T10:44:03.838Z,33.61
2019-02-26T10:45:03.810Z,33.55
2019-02-26T10:46:03.800Z,33.01
2019-02-26T10:47:05.768Z,32.54
2019-02-26T10:48:03.783Z,32.30
2019-02-26T10:49:03.786Z,32.10
2019-02-26T10:50:03.856Z,32.22
2019-02-26T10:51:06.472Z,31.53
2019-02-26T10:52:03.735Z,30.67
2019-02-26T10:53:09.810Z,30.14
2019-02-26T10:54:06.211Z,30.31
2019-02-26T10:55:03.707Z,30.47
2019-02-26T10:56:03.693Z,31.17
2019-02-26T10:57:07.485Z,31.31
2019-02-26T10:58:08.044Z,31.84
2019-02-26T10:59:08.610Z,32.69
2019-02-26T11:00:06.360Z,31.98
2019-02-26T11:01:05.259Z,30.50
2019-02-26T11:02:03.633Z,30.38
2019-02-26T11:03:03.621Z,31.35
2019-02-26T11:04:04.655Z,31.98
2019-02-26T11:05:03.636Z,32.43
2019-02-26T11:06:04.839Z,32.67
2019-02-26T11:07:04.940Z,32.62
2019-02-26T11:08:08.886Z,31.95
2019-02-26T11:09:04.575Z,31.91
2019-02-26T11:10:03.545Z,32.15
2019-02-26T11:11:04.788Z,32.51
2019-02-26T11:12:05.942Z,33.11
2019-02-26T11:13:03.513Z,33.79
2019-02-26T11:14:05.251Z,34.14
2019-02-26T11:15:04.980Z,34.08
2019-02-26T11:16:03.479Z,33.52
2019-02-26T11:17:03.476Z,33.34
2019-02-26T11:18:03.459Z,33.41
2019-02-26T11:19:04.378Z,33.70
2019-02-26T11:20:04.639Z,33.94
2019-02-26T11:21:03.429Z,34.19
2019-02-26T11:22:04.211Z,34.44
2019-02-26T11:23:06.013Z,34.23
2019-02-26T11:24:04.156Z,34.45
2019-02-26T11:25:03.390Z,34.58
2019-02-26T11:26:04.185Z,34.74
2019-02-26T11:27:03.381Z,34.24
2019-02-26T11:28:05.627Z,33.30
2019-02-26T11:29:03.362Z,33.49
2019-02-26T11:30:05.068Z,33.87
2019-02-26T11:31:03.343Z,33.94
2019-02-26T11:32:04.638Z,34.09
2019-02-26T11:33:06.076Z,34.41
2019-02-26T11:34:05.848Z,34.23
2019-02-26T11:35:03.279Z,33.53
2019-02-26T11:36:05.284Z,33.39
2019-02-26T11:37:08.466Z,33.36
2019-02-26T11:38:04.260Z,33.49
2019-02-26T11:39:05.079Z,33.68
2019-02-26T11:40:05.377Z,33.87
2019-02-26T11:41:03.218Z,33.58
2019-02-26T11:42:03.203Z,33.37
2019-02-26T11:43:11.097Z,33.63
2019-02-26T11:44:07.152Z,34.02
2019-02-26T11:45:06.668Z,34.19
2019-02-26T11:46:03.823Z,34.05
2019-02-26T11:47:03.155Z,33.73
2019-02-26T11:48:04.340Z,33.90
2019-02-26T11:49:03.150Z,33.68
2019-02-26T11:50:06.450Z,32.91
2019-02-26T11:51:03.111Z,32.73
2019-02-26T11:52:04.386Z,32.62
2019-02-26T11:53:03.087Z,32.88
2019-02-26T11:54:04.991Z,33.19
2019-02-26T11:55:05.942Z,33.39
2019-02-26T11:56:03.059Z,33.57
2019-02-26T11:57:04.586Z,33.74
2019-02-26T11:58:05.628Z,33.46
2019-02-26T11:59:06.544Z,33.60
2019-02-26T12:00:04.518Z,33.29
2019-02-26T12:01:03.007Z,32.57
2019-02-26T12:02:04.423Z,31.88
2019-02-26T12:03:02.985Z,32.02
2019-02-26T12:04:04.107Z,32.37
2019-02-26T12:05:05.432Z,32.47
2019-02-26T12:06:02.952Z,32.61
2019-02-26T12:07:04.139Z,32.49
2019-02-26T12:08:02.929Z,32.29
2019-02-26T12:09:05.476Z,32.05
2019-02-26T12:10:09.265Z,32.02
2019-02-26T12:11:06.492Z,31.35
2019-02-26T12:12:03.472Z,31.06
2019-02-26T12:13:02.878Z,31.27
2019-02-26T12:14:02.887Z,32.00
2019-02-26T12:15:04.425Z,32.47
2019-02-26T12:16:02.845Z,32.74
2019-02-26T12:17:02.833Z,32.18
2019-02-26T12:18:02.826Z,31.55
2019-02-26T12:19:04.042Z,31.43
2019-02-26T12:20:02.803Z,30.76
2019-02-26T12:21:05.197Z,30.54
2019-02-26T12:22:03.612Z,30.53
2019-02-26T12:23:02.771Z,31.02
2019-02-26T12:24:03.431Z,31.23
2019-02-26T12:25:07.977Z,31.05
2019-02-26T12:26:04.004Z,31.40
2019-02-26T12:27:02.727Z,31.99
2019-02-26T12:28:03.691Z,32.33
2019-02-26T12:29:04.443Z,32.10
2019-02-26T12:30:02.697Z,31.93
2019-02-26T12:31:04.347Z,31.39
2019-02-26T12:32:04.804Z,31.15
2019-02-26T12:33:02.664Z,29.84
2019-02-26T12:34:02.674Z,30.18
2019-02-26T12:35:03.413Z,30.86
2019-02-26T12:36:05.223Z,29.97
2019-02-26T12:37:05.891Z,29.55
2019-02-26T12:38:17.348Z,29.34
2019-02-26T12:39:03.615Z,28.77
2019-02-26T12:40:02.611Z,28.35
2019-02-26T12:41:02.594Z,28.22
2019-02-26T12:42:02.569Z,28.50
2019-02-26T12:43:05.501Z,29.19
2019-02-26T12:44:05.671Z,29.75
2019-02-26T12:45:06.715Z,30.23
2019-02-26T12:46:04.711Z,31.01
2019-02-26T12:47:03.509Z,31.67
2019-02-26T12:48:02.518Z,32.20
2019-02-26T12:49:05.139Z,32.03
2019-02-26T12:50:05.182Z,31.72
2019-02-26T12:51:04.839Z,31.64
2019-02-26T12:52:03.380Z,30.34
2019-02-26T12:53:02.480Z,30.37
2019-02-26T12:54:03.513Z,30.11
2019-02-26T12:55:04.126Z,29.90
2019-02-26T12:56:06.914Z,30.14
2019-02-26T12:57:04.261Z,30.47
2019-02-26T12:58:02.394Z,30.36
2019-02-26T12:59:02.389Z,30.69
2019-02-26T13:00:02.389Z,30.33
2019-02-26T13:01:02.358Z,30.31
2019-02-26T13:02:04.729Z,30.80
2019-02-26T13:03:05.115Z,31.31
2019-02-26T13:04:02.332Z,30.11
2019-02-26T13:05:02.333Z,30.08
2019-02-26T13:06:05.179Z,29.72
2019-02-26T13:07:05.260Z,30.14